Aérodrome :







RETROUVEZ-NOUS SUR...

 
LOGIN :

S'inscrire | Disclaimer

   EN    FR    IT 

 









Légende :    VFR   VFR Marginal   IFR   IFR Intensif   IFR Très Intensif
Visi : 
Plafond : 
>= 8 km
>= 3000ft
5 à 8 km
1000 à 3000 ft
1500m à 5 km
500 à 1000 ft
800 à 1500m
200 à 500 ft
< 800m
< 200 ft
Symboles :   Orages  Brouillard  Fortes neiges  Fortes précipitations  Vent > 20 kt






- Altitude de l'aérodrome : 108 ft
- Code IATA : YAY


CYAY - St Anthony

DERNIER METAR :
  • 190100Z AUTO 27018G23KT 9SM CLR M17/M22 A2991 RMK PRESRR SLP133

METARs EXPIRÉS :
  • 190000Z AUTO 28012G18KT 9SM CLR M17/M22 A2988 RMK SLP123
  • 182300Z AUTO 28019KT 9SM CLR M17/M22 A2987 RMK SLP120

TAF TAF CYAY
Valide du 18 à 20h jusqu'au 19 à 08h UTC


181938Z 1820/1908 28020G30KT P6SM SKC
BECMG 1823/1901 26015G25KT FEW040
FM190600 26012KT P6SM FEW040 RMK FCST BASED ON AUTO OBS. NXT FCST BY 190200Z



MET'MAP, la Météo Aéronautique d'un coup d'oeil ! - Copyright ORBIFLY Décembre 2007 - Disclaimer

ORBIFLY MET'MAP TEAM :

Programmation & Développement : Alexandra Zaïnal
Sur une idée originale de : Baudouin d'Aumeries
Assistance à la programmation : Marc-Olivier Méhu
Soutien technique & logistique : Manuel Goepfert

Contact : metmap@orbifly.com




SOURCES & CREDITS :

   NOAA